Airfield :
LOGIN :

Register | Disclaimer

   EN    FR    IT 

 










Legend :    VFR   Marginal VFR   IFR   Intensive IFR   Very Intensive IFR
Visi :
Ceiling :
>= 8 km
>= 3000ft
5 to 8 km
1000 to 3000 ft
1500m to 5 km
500 to 1000 ft
800 to 1500m
200 to 500 ft
< 800m
< 200 ft
Symbols :   Thunderstorms  Fog  Heavy snow  Heavy precipitations  Wind > 20 kt
SIGMETs :     Misc.  Thunderstorms  Icing  Turbulence  Mountain Waves  Volcanic Ashes






- Airport Elevation : 1910 ft
- IATA code : RDZ


LFCR - Rodez

CURRENT METAR :
  • 301330Z AUTO VRB06KT CAVOK 24/10 Q1015 NOSIG

EXPIRED METARs :
  • 301300Z AUTO 26007KT 180V330 CAVOK 24/11 Q1015 NOSIG
  • 301230Z AUTO VRB05KT CAVOK 24/10 Q1016 NOSIG
  • 301200Z AUTO 30006KT 270V350 CAVOK 24/10 Q1016 NOSIG
  • 301130Z AUTO VRB03KT 9999 SCT047 23/11 Q1016 NOSIG

TAF TAF LFCR
Valid from the 30 at 12:00 until the 31 at 12:00 UTC


301100Z 3012/3112 VRB03KT CAVOK



MET'MAP, your aeronautical weather chart ! - Copyright ORBIFLY December 2007 - Disclaimer

ORBIFLY MET'MAP TEAM :

Programming & Development : Alexandra Zaïnal
Concept & original design : Baudouin d'Aumeries
Assistance for programming : Marc-Olivier Méhu
Technical & hardware support : Manuel Goepfert

Contact : metmap@orbifly.com




SOURCES & CREDITS :

   NOAA